createdAt,value
2019-01-17T00:00:35.336Z,-1.90
2019-01-17T00:01:29.922Z,-1.90
2019-01-17T00:02:23.241Z,-1.90
2019-01-17T00:03:13.021Z,-1.90
2019-01-17T00:04:09.061Z,-1.90
2019-01-17T00:05:09.761Z,-1.90
2019-01-17T00:06:03.300Z,-1.90
2019-01-17T00:06:52.281Z,-2.00
2019-01-17T00:07:45.410Z,-2.00
2019-01-17T00:08:52.270Z,-2.00
2019-01-17T00:09:41.442Z,-2.10
2019-01-17T00:10:42.342Z,-2.10
2019-01-17T00:11:35.605Z,-2.10
2019-01-17T00:12:29.149Z,-2.10
2019-01-17T00:13:23.936Z,-2.20
2019-01-17T00:14:24.448Z,-2.30
2019-01-17T00:15:18.308Z,-2.30
2019-01-17T00:16:15.769Z,-2.30
2019-01-17T00:17:19.244Z,-2.40
2019-01-17T00:18:06.285Z,-2.40
2019-01-17T00:19:06.564Z,-2.40
2019-01-17T00:20:16.306Z,-2.50
2019-01-17T00:21:19.485Z,-2.50
2019-01-17T00:22:15.244Z,-2.60
2019-01-17T00:23:12.524Z,-2.60
2019-01-17T00:24:13.372Z,-2.60
2019-01-17T00:25:23.087Z,-2.60
2019-01-17T00:26:12.267Z,-2.60
2019-01-17T00:27:18.608Z,-2.60
2019-01-17T00:28:13.187Z,-2.50
2019-01-17T00:29:08.777Z,-2.40
2019-01-17T00:30:06.057Z,-2.40
2019-01-17T00:30:59.276Z,-2.30
2019-01-17T00:32:06.356Z,-2.20
2019-01-17T00:32:59.995Z,-2.20
2019-01-17T00:33:47.317Z,-2.10
2019-01-17T00:34:56.941Z,-2.10
2019-01-17T00:35:46.814Z,-2.10
2019-01-17T00:36:47.337Z,-2.20
2019-01-17T00:37:41.912Z,-2.20
2019-01-17T00:38:48.773Z,-2.20
2019-01-17T00:39:49.307Z,-2.20
2019-01-17T00:40:47.146Z,-2.30
2019-01-17T00:41:35.384Z,-2.40
2019-01-17T00:42:22.496Z,-2.50
2019-01-17T00:43:10.311Z,-2.60
2019-01-17T00:44:03.970Z,-2.60
2019-01-17T00:44:59.770Z,-2.70
2019-01-17T00:46:00.290Z,-2.70
2019-01-17T00:46:53.559Z,-2.70
2019-01-17T00:47:50.891Z,-2.70
2019-01-17T00:48:50.991Z,-2.70
2019-01-17T00:50:03.813Z,-2.70
2019-01-17T00:51:13.851Z,-2.70
2019-01-17T00:52:08.521Z,-2.80
2019-01-17T00:53:01.462Z,-2.80
2019-01-17T00:54:09.025Z,-2.90
2019-01-17T00:55:11.561Z,-2.90
2019-01-17T00:56:11.622Z,-2.90
2019-01-17T00:57:12.442Z,-3.00
2019-01-17T00:58:03.882Z,-3.00
2019-01-17T00:59:01.201Z,-3.00
2019-01-17T00:59:50.351Z,-2.90
2019-01-17T01:00:47.897Z,-2.90
2019-01-17T01:01:51.278Z,-2.90
2019-01-17T01:02:37.798Z,-2.80
2019-01-17T01:03:35.320Z,-2.70
2019-01-17T01:04:35.437Z,-2.60
2019-01-17T01:05:33.406Z,-2.50
2019-01-17T01:06:34.838Z,-2.50
2019-01-17T01:07:32.584Z,-2.40
2019-01-17T01:08:26.132Z,-2.40
2019-01-17T01:09:19.496Z,-2.30
2019-01-17T01:10:17.236Z,-2.30
2019-01-17T01:11:14.927Z,-2.20
2019-01-17T01:12:02.242Z,-2.20
2019-01-17T01:12:59.761Z,-2.10
2019-01-17T01:13:57.510Z,-2.10
2019-01-17T01:15:01.615Z,-2.10
2019-01-17T01:16:02.535Z,-2.10
2019-01-17T01:17:22.914Z,-2.10
2019-01-17T01:18:16.075Z,-2.00
2019-01-17T01:19:03.486Z,-2.00
2019-01-17T01:19:58.271Z,-1.90
2019-01-17T01:20:52.851Z,-1.90
2019-01-17T01:22:05.751Z,-1.90
2019-01-17T01:22:59.612Z,-1.80
2019-01-17T01:23:53.091Z,-1.70
2019-01-17T01:24:54.001Z,-1.70
2019-01-17T01:25:50.941Z,-1.60
2019-01-17T01:26:57.594Z,-1.60
2019-01-17T01:28:01.175Z,-1.60
2019-01-17T01:29:01.496Z,-1.50
2019-01-17T01:29:54.435Z,-1.50
2019-01-17T01:30:48.094Z,-1.40
2019-01-17T01:31:42.575Z,-1.40
2019-01-17T01:32:42.980Z,-1.30
2019-01-17T01:33:35.940Z,-1.20
2019-01-17T01:34:33.265Z,-1.10
2019-01-17T01:35:36.265Z,-1.00
2019-01-17T01:36:37.585Z,-0.90
2019-01-17T01:37:31.146Z,-0.90
2019-01-17T01:38:18.172Z,-0.80
2019-01-17T01:39:12.823Z,-0.80
2019-01-17T01:40:06.082Z,-0.80
2019-01-17T01:41:08.540Z,-0.70
2019-01-17T01:42:09.260Z,-0.70
2019-01-17T01:43:02.720Z,-0.70
2019-01-17T01:44:03.547Z,-0.60
2019-01-17T01:44:57.302Z,-0.60
2019-01-17T01:45:50.660Z,-0.50
2019-01-17T01:46:41.480Z,-0.50
2019-01-17T01:47:34.700Z,-0.40
2019-01-17T01:48:27.753Z,-0.40
2019-01-17T01:49:31.322Z,-0.40
2019-01-17T01:50:25.087Z,-0.30
2019-01-17T01:51:18.248Z,-0.30
2019-01-17T01:52:16.517Z,-0.30
2019-01-17T01:53:11.176Z,-0.30
2019-01-17T01:53:46.974Z,-0.30
2019-01-17T01:54:22.562Z,-0.30
2019-01-17T01:54:58.342Z,-0.30
2019-01-17T01:55:34.492Z,-0.30
2019-01-17T01:56:10.301Z,-0.30
2019-01-17T01:56:46.267Z,-0.30
2019-01-17T01:57:22.253Z,-0.30
2019-01-17T01:57:58.131Z,-0.20
2019-01-17T01:58:33.841Z,-0.20
2019-01-17T01:59:09.581Z,-0.20
2019-01-17T01:59:45.221Z,-0.20
2019-01-17T02:00:21.051Z,-0.10
2019-01-17T02:00:56.711Z,-0.10
2019-01-17T02:01:32.498Z,-0.10
2019-01-17T02:02:08.695Z,0.00
2019-01-17T02:02:44.522Z,0.00
2019-01-17T02:03:20.162Z,0.00
2019-01-17T02:03:56.064Z,0.00
2019-01-17T02:04:31.923Z,0.00
2019-01-17T02:05:07.887Z,0.00
2019-01-17T02:05:43.601Z,0.10
2019-01-17T02:06:19.425Z,0.10
2019-01-17T02:06:55.285Z,0.10
2019-01-17T02:07:31.000Z,0.10
2019-01-17T02:08:06.831Z,0.10
2019-01-17T02:08:42.599Z,0.10
2019-01-17T02:09:18.331Z,0.10
2019-01-17T02:09:54.180Z,0.10
2019-01-17T02:10:29.802Z,0.10
2019-01-17T02:11:05.631Z,0.00
2019-01-17T02:11:41.311Z,0.10
2019-01-17T02:12:17.233Z,0.10
2019-01-17T02:12:53.007Z,0.10
2019-01-17T02:13:28.851Z,0.00
2019-01-17T02:14:05.482Z,0.00
2019-01-17T02:14:41.402Z,0.00
2019-01-17T02:15:17.182Z,0.00
2019-01-17T02:15:52.925Z,0.00
2019-01-17T02:16:28.565Z,0.00
2019-01-17T02:17:04.302Z,0.10
2019-01-17T02:17:40.022Z,0.10
2019-01-17T02:18:15.825Z,0.10
2019-01-17T02:18:51.884Z,0.10
2019-01-17T02:19:27.761Z,0.10
2019-01-17T02:20:05.515Z,0.20
2019-01-17T02:20:41.314Z,0.20
2019-01-17T02:21:17.075Z,0.20
2019-01-17T02:21:52.834Z,0.20
2019-01-17T02:22:28.936Z,0.20
2019-01-17T02:23:04.661Z,0.20
2019-01-17T02:23:40.459Z,0.20
2019-01-17T02:24:16.226Z,0.20
2019-01-17T02:24:51.985Z,0.20
2019-01-17T02:25:27.925Z,0.20
2019-01-17T02:26:03.641Z,0.20
2019-01-17T02:26:39.229Z,0.20
2019-01-17T02:27:15.068Z,0.20
2019-01-17T02:27:50.889Z,0.20
2019-01-17T02:28:26.601Z,0.20
2019-01-17T02:29:02.101Z,0.20
2019-01-17T02:29:37.830Z,0.20
2019-01-17T02:30:15.060Z,0.20
2019-01-17T02:30:50.675Z,0.20
2019-01-17T02:31:26.611Z,0.20
2019-01-17T02:32:02.404Z,0.20
2019-01-17T02:32:38.266Z,0.30
2019-01-17T02:33:14.125Z,0.30
2019-01-17T02:33:50.001Z,0.20
2019-01-17T02:34:25.780Z,0.20
2019-01-17T02:35:01.612Z,0.20
2019-01-17T02:35:37.461Z,0.20
2019-01-17T02:36:13.301Z,0.20
2019-01-17T02:36:49.021Z,0.20
2019-01-17T02:37:24.892Z,0.20
2019-01-17T02:38:00.641Z,0.30
2019-01-17T02:38:36.230Z,0.20
2019-01-17T02:39:12.170Z,0.20
2019-01-17T02:39:47.987Z,0.20
2019-01-17T02:40:23.774Z,0.10
2019-01-17T02:40:59.491Z,0.10
2019-01-17T02:41:35.144Z,0.10
2019-01-17T02:42:10.862Z,0.10
2019-01-17T02:42:46.723Z,0.10
2019-01-17T02:43:22.461Z,0.10
2019-01-17T02:43:58.313Z,0.10
2019-01-17T02:44:34.223Z,0.10
2019-01-17T02:45:11.737Z,0.10
2019-01-17T02:45:47.670Z,0.10
2019-01-17T02:46:23.346Z,0.10
2019-01-17T02:46:59.124Z,0.20
2019-01-17T02:47:34.696Z,0.20
2019-01-17T02:48:10.196Z,0.20
2019-01-17T02:48:45.808Z,0.20
2019-01-17T02:49:21.483Z,0.30
2019-01-17T02:49:57.063Z,0.30
2019-01-17T02:50:32.643Z,0.30
2019-01-17T02:51:08.543Z,0.30
2019-01-17T02:51:44.203Z,0.30
2019-01-17T02:52:19.784Z,0.40
2019-01-17T02:52:55.326Z,0.40
2019-01-17T02:53:30.965Z,0.40
2019-01-17T02:54:06.558Z,0.40
2019-01-17T02:54:42.017Z,0.40
2019-01-17T02:55:17.517Z,0.40
2019-01-17T02:55:53.107Z,0.40
2019-01-17T02:56:28.625Z,0.40
2019-01-17T02:57:04.025Z,0.40
2019-01-17T02:57:39.758Z,0.40
2019-01-17T02:58:15.357Z,0.40
2019-01-17T02:58:50.847Z,0.30
2019-01-17T02:59:26.398Z,0.40
2019-01-17T03:00:01.956Z,0.40
2019-01-17T03:00:37.776Z,0.30
2019-01-17T03:01:13.416Z,0.40
2019-01-17T03:01:48.856Z,0.40
2019-01-17T03:02:24.656Z,0.40
2019-01-17T03:03:00.219Z,0.40
2019-01-17T03:03:35.838Z,0.30
2019-01-17T03:04:11.242Z,0.30
2019-01-17T03:04:46.698Z,0.30
2019-01-17T03:05:22.422Z,0.30
2019-01-17T03:05:58.001Z,0.30
2019-01-17T03:06:33.662Z,0.20
2019-01-17T03:07:09.303Z,0.20
2019-01-17T03:07:44.885Z,0.20
2019-01-17T03:08:20.318Z,0.20
2019-01-17T03:08:56.027Z,0.10
2019-01-17T03:09:31.541Z,0.10
2019-01-17T03:10:09.950Z,0.10
2019-01-17T03:10:46.259Z,0.10
2019-01-17T03:11:22.264Z,0.10
2019-01-17T03:11:58.096Z,0.10
2019-01-17T03:12:34.140Z,0.10
2019-01-17T03:13:09.587Z,0.20
2019-01-17T03:13:45.464Z,0.20
2019-01-17T03:14:21.230Z,0.10
2019-01-17T03:14:56.694Z,0.10
2019-01-17T03:15:32.291Z,0.10
2019-01-17T03:16:08.007Z,0.10
2019-01-17T03:16:43.898Z,0.10
2019-01-17T03:17:19.569Z,0.10
2019-01-17T03:17:55.239Z,0.20
2019-01-17T03:18:30.978Z,0.20
2019-01-17T03:19:06.516Z,0.30
2019-01-17T03:19:41.835Z,0.40
2019-01-17T03:20:17.065Z,0.40
2019-01-17T03:20:52.495Z,0.40
2019-01-17T03:21:27.800Z,0.50
2019-01-17T03:22:03.257Z,0.50
2019-01-17T03:22:38.896Z,0.60
2019-01-17T03:23:14.316Z,0.60
2019-01-17T03:23:49.912Z,0.60
2019-01-17T03:24:25.819Z,0.70
2019-01-17T03:25:01.324Z,0.70
2019-01-17T03:25:36.753Z,0.80
2019-01-17T03:26:12.023Z,0.80
2019-01-17T03:26:47.500Z,0.90
2019-01-17T03:27:22.747Z,1.00
2019-01-17T03:27:58.056Z,1.00
2019-01-17T03:28:33.388Z,1.00
2019-01-17T03:29:08.707Z,1.00
2019-01-17T03:29:44.216Z,1.00
2019-01-17T03:30:20.359Z,1.00
2019-01-17T03:30:55.598Z,1.00
2019-01-17T03:31:30.840Z,1.10
2019-01-17T03:32:06.277Z,1.10
2019-01-17T03:32:42.083Z,1.10
2019-01-17T03:33:17.300Z,1.30
2019-01-17T03:33:52.649Z,1.30
2019-01-17T03:34:27.838Z,1.40
2019-01-17T03:35:03.227Z,1.40
2019-01-17T03:35:38.440Z,1.40
2019-01-17T03:36:13.861Z,1.40
2019-01-17T03:36:49.280Z,1.50
2019-01-17T03:37:24.655Z,1.50
2019-01-17T03:38:00.088Z,1.50
2019-01-17T03:38:35.476Z,1.50
2019-01-17T03:39:10.937Z,1.50
2019-01-17T03:39:46.302Z,1.60
2019-01-17T03:40:21.901Z,1.60
2019-01-17T03:40:57.436Z,1.60
2019-01-17T03:41:33.326Z,1.60
2019-01-17T03:42:08.846Z,1.60
2019-01-17T03:42:44.365Z,1.60
2019-01-17T03:43:19.895Z,1.60
2019-01-17T03:43:55.316Z,1.60
2019-01-17T03:44:30.862Z,1.60
2019-01-17T03:45:07.147Z,1.70
2019-01-17T03:45:42.699Z,1.70
2019-01-17T03:46:18.294Z,1.70
2019-01-17T03:46:53.792Z,1.70
2019-01-17T03:47:29.499Z,1.70
2019-01-17T03:48:05.129Z,1.70
2019-01-17T03:48:40.517Z,1.70
2019-01-17T03:49:16.041Z,1.70
2019-01-17T03:49:52.059Z,1.70
2019-01-17T03:50:27.761Z,1.70
2019-01-17T03:51:03.375Z,1.70
2019-01-17T03:51:38.822Z,1.70
2019-01-17T03:52:14.518Z,1.70
2019-01-17T03:52:49.898Z,1.70
2019-01-17T03:53:25.481Z,1.70
2019-01-17T03:54:00.839Z,1.70
2019-01-17T03:54:36.160Z,1.70
2019-01-17T03:55:13.139Z,1.70
2019-01-17T03:55:48.703Z,1.70
2019-01-17T03:56:24.098Z,1.70
2019-01-17T03:56:59.478Z,1.70
2019-01-17T03:57:34.807Z,1.70
2019-01-17T03:58:09.980Z,1.60
2019-01-17T03:58:45.355Z,1.60
2019-01-17T03:59:20.798Z,1.60
2019-01-17T03:59:56.278Z,1.60
2019-01-17T04:00:32.057Z,1.60
2019-01-17T04:01:07.277Z,1.60
2019-01-17T04:01:42.637Z,1.60
2019-01-17T04:02:18.016Z,1.60
2019-01-17T04:02:53.439Z,1.60
2019-01-17T04:03:29.046Z,1.60
2019-01-17T04:04:04.494Z,1.60
2019-01-17T04:04:40.013Z,1.50
2019-01-17T04:05:15.631Z,1.50
2019-01-17T04:05:51.199Z,1.50
2019-01-17T04:06:26.699Z,1.50
2019-01-17T04:07:02.182Z,1.50
2019-01-17T04:07:37.770Z,1.50
2019-01-17T04:08:13.317Z,1.50
2019-01-17T04:08:49.103Z,1.50
2019-01-17T04:09:24.762Z,1.50
2019-01-17T04:10:00.232Z,1.40
2019-01-17T04:10:35.922Z,1.40
2019-01-17T04:11:11.324Z,1.40
2019-01-17T04:11:46.911Z,1.40
2019-01-17T04:12:22.528Z,1.40
2019-01-17T04:12:58.054Z,1.40
2019-01-17T04:13:33.500Z,1.40
2019-01-17T04:14:09.053Z,1.40
2019-01-17T04:14:44.468Z,1.40
2019-01-17T04:15:20.034Z,1.50
2019-01-17T04:15:55.534Z,1.50
2019-01-17T04:16:30.946Z,1.50
2019-01-17T04:17:06.526Z,1.50
2019-01-17T04:17:41.993Z,1.40
2019-01-17T04:18:17.504Z,1.50
2019-01-17T04:18:52.863Z,1.50
2019-01-17T04:19:28.302Z,1.60
2019-01-17T04:20:03.853Z,1.60
2019-01-17T04:20:39.377Z,1.70
2019-01-17T04:21:14.820Z,1.70
2019-01-17T04:21:50.251Z,1.70
2019-01-17T04:22:25.783Z,1.70
2019-01-17T04:23:01.303Z,1.70
2019-01-17T04:23:36.941Z,1.70
2019-01-17T04:24:12.646Z,1.80
2019-01-17T04:24:48.033Z,1.80
2019-01-17T04:25:23.443Z,1.80
2019-01-17T04:25:58.961Z,1.80
2019-01-17T04:26:34.526Z,1.70
2019-01-17T04:27:10.054Z,1.80
2019-01-17T04:27:45.589Z,1.80
2019-01-17T04:28:21.008Z,1.80
2019-01-17T04:28:56.543Z,1.80
2019-01-17T04:29:31.972Z,1.80
2019-01-17T04:30:10.282Z,1.80
2019-01-17T04:30:45.801Z,1.70
2019-01-17T04:31:21.338Z,1.80
2019-01-17T04:31:57.058Z,1.80
2019-01-17T04:32:32.456Z,1.80
2019-01-17T04:33:08.077Z,1.90
2019-01-17T04:33:43.765Z,1.90
2019-01-17T04:34:19.061Z,2.00
2019-01-17T04:34:54.426Z,2.00
2019-01-17T04:35:29.829Z,2.00
2019-01-17T04:36:05.104Z,2.00
2019-01-17T04:36:40.697Z,2.00
2019-01-17T04:37:16.117Z,2.10
2019-01-17T04:37:51.657Z,2.10
2019-01-17T04:38:27.121Z,2.10
2019-01-17T04:39:02.602Z,2.10
2019-01-17T04:39:38.216Z,2.10
2019-01-17T04:40:13.856Z,2.10
2019-01-17T04:40:49.188Z,2.10
2019-01-17T04:41:24.600Z,2.10
2019-01-17T04:41:59.887Z,2.10
2019-01-17T04:42:35.295Z,2.10
2019-01-17T04:43:11.136Z,2.10
2019-01-17T04:43:46.874Z,2.10
2019-01-17T04:44:22.578Z,2.10
2019-01-17T04:44:58.177Z,2.10
2019-01-17T04:45:33.957Z,2.10
2019-01-17T04:46:09.557Z,2.10
2019-01-17T04:46:45.237Z,2.10
2019-01-17T04:47:21.036Z,2.10
2019-01-17T04:47:56.635Z,2.10
2019-01-17T04:48:32.709Z,2.10
2019-01-17T04:49:08.416Z,2.10
2019-01-17T04:49:44.017Z,2.10
2019-01-17T04:50:19.575Z,2.10
2019-01-17T04:50:55.117Z,2.10
2019-01-17T04:51:30.576Z,2.10
2019-01-17T04:52:06.342Z,2.10
2019-01-17T04:52:42.572Z,2.10
2019-01-17T04:53:18.233Z,2.10
2019-01-17T04:53:53.873Z,2.10
2019-01-17T04:54:29.484Z,2.10
2019-01-17T04:55:05.721Z,2.10
2019-01-17T04:55:41.654Z,2.10
2019-01-17T04:56:17.464Z,2.10
2019-01-17T04:56:53.183Z,2.10
2019-01-17T04:57:28.703Z,2.10
2019-01-17T04:58:04.261Z,2.10
2019-01-17T04:58:39.989Z,2.20
2019-01-17T04:59:15.779Z,2.20
2019-01-17T04:59:51.471Z,2.20
2019-01-17T05:00:27.136Z,2.20
2019-01-17T05:01:02.777Z,2.20
2019-01-17T05:01:38.307Z,2.20
2019-01-17T05:02:13.994Z,2.20
2019-01-17T05:02:49.869Z,2.20
2019-01-17T05:03:25.517Z,2.30
2019-01-17T05:04:01.301Z,2.30
2019-01-17T05:04:36.806Z,2.30
2019-01-17T05:05:12.537Z,2.30
2019-01-17T05:05:48.258Z,2.30
2019-01-17T05:06:23.937Z,2.30
2019-01-17T05:06:59.597Z,2.30
2019-01-17T05:07:35.269Z,2.30
2019-01-17T05:08:10.852Z,2.30
2019-01-17T05:08:46.639Z,2.30
2019-01-17T05:09:22.303Z,2.30
2019-01-17T05:09:57.933Z,2.30
2019-01-17T05:10:33.534Z,2.20
2019-01-17T05:11:09.637Z,2.20
2019-01-17T05:11:45.313Z,2.20
2019-01-17T05:12:21.167Z,2.20
2019-01-17T05:12:56.838Z,2.20
2019-01-17T05:13:32.979Z,2.30
2019-01-17T05:14:08.711Z,2.30
2019-01-17T05:14:44.631Z,2.20
2019-01-17T05:15:20.692Z,2.20
2019-01-17T05:15:56.163Z,2.20
2019-01-17T05:16:31.725Z,2.10
2019-01-17T05:17:07.519Z,2.20
2019-01-17T05:17:43.140Z,2.10
2019-01-17T05:18:18.777Z,2.10
2019-01-17T05:18:54.619Z,2.10
2019-01-17T05:19:30.259Z,2.10
2019-01-17T05:20:07.957Z,2.10
2019-01-17T05:20:43.548Z,2.10
2019-01-17T05:21:19.315Z,2.10
2019-01-17T05:21:54.956Z,2.10
2019-01-17T05:22:30.525Z,2.10
2019-01-17T05:23:06.937Z,2.10
2019-01-17T05:23:42.657Z,2.10
2019-01-17T05:24:18.296Z,2.00
2019-01-17T05:24:54.270Z,2.00
2019-01-17T05:25:30.053Z,2.00
2019-01-17T05:26:05.813Z,2.00
2019-01-17T05:26:41.274Z,2.00
2019-01-17T05:27:16.814Z,2.00
2019-01-17T05:27:52.372Z,2.00
2019-01-17T05:28:28.187Z,2.00
2019-01-17T05:29:03.799Z,1.90
2019-01-17T05:29:39.936Z,1.90
2019-01-17T05:30:19.494Z,1.90
2019-01-17T05:30:55.155Z,1.90
2019-01-17T05:31:30.854Z,1.90
2019-01-17T05:32:06.689Z,1.90
2019-01-17T05:32:42.328Z,1.90
2019-01-17T05:33:18.054Z,1.90
2019-01-17T05:33:53.698Z,1.90
2019-01-17T05:34:29.450Z,1.90
2019-01-17T05:35:05.337Z,1.90
2019-01-17T05:35:41.077Z,1.90
2019-01-17T05:36:17.236Z,1.90
2019-01-17T05:36:52.916Z,1.90
2019-01-17T05:37:28.717Z,1.90
2019-01-17T05:38:04.329Z,1.90
2019-01-17T05:38:40.917Z,1.90
2019-01-17T05:39:16.501Z,1.90
2019-01-17T05:39:52.061Z,1.90
2019-01-17T05:40:27.910Z,1.90
2019-01-17T05:41:03.501Z,1.90
2019-01-17T05:41:39.221Z,1.90
2019-01-17T05:42:14.751Z,1.80
2019-01-17T05:42:50.523Z,1.80
2019-01-17T05:43:26.110Z,1.80
2019-01-17T05:44:01.717Z,1.80
2019-01-17T05:44:37.490Z,1.80
2019-01-17T05:45:13.631Z,1.70
2019-01-17T05:45:49.373Z,1.70
2019-01-17T05:46:25.175Z,1.70
2019-01-17T05:47:01.222Z,1.70
2019-01-17T05:47:36.913Z,1.70
2019-01-17T05:48:12.733Z,1.70
2019-01-17T05:48:48.373Z,1.60
2019-01-17T05:49:23.895Z,1.60
2019-01-17T05:49:59.582Z,1.60
2019-01-17T05:50:35.217Z,1.60
2019-01-17T05:51:11.290Z,1.60
2019-01-17T05:51:46.911Z,1.60
2019-01-17T05:52:22.430Z,1.60
2019-01-17T05:52:57.990Z,1.60
2019-01-17T05:53:34.573Z,1.60
2019-01-17T05:54:09.957Z,1.60
2019-01-17T05:54:45.516Z,1.60
2019-01-17T05:55:21.489Z,1.50
2019-01-17T05:55:58.175Z,1.50
2019-01-17T05:56:33.964Z,1.50
2019-01-17T05:57:09.646Z,1.50
2019-01-17T05:57:45.163Z,1.50
2019-01-17T05:58:20.766Z,1.50
2019-01-17T05:58:57.065Z,1.50
2019-01-17T05:59:32.865Z,1.50
2019-01-17T06:00:12.479Z,1.50
2019-01-17T06:00:48.018Z,1.50
2019-01-17T06:01:23.362Z,1.50
2019-01-17T06:01:58.883Z,1.50
2019-01-17T06:02:34.518Z,1.50
2019-01-17T06:03:09.982Z,1.50
2019-01-17T06:03:45.814Z,1.50
2019-01-17T06:04:21.343Z,1.60
2019-01-17T06:04:56.762Z,1.50
2019-01-17T06:05:32.091Z,1.50
2019-01-17T06:06:07.512Z,1.60
2019-01-17T06:06:42.983Z,1.70
2019-01-17T06:07:18.242Z,1.70
2019-01-17T06:07:53.522Z,1.60
2019-01-17T06:08:28.646Z,1.70
2019-01-17T06:09:05.105Z,1.70
2019-01-17T06:09:40.213Z,1.70
2019-01-17T06:10:15.645Z,1.80
2019-01-17T06:10:50.967Z,1.80
2019-01-17T06:11:26.126Z,1.80
2019-01-17T06:12:01.426Z,1.80
2019-01-17T06:12:36.455Z,1.80
2019-01-17T06:13:12.094Z,1.80
2019-01-17T06:13:47.084Z,1.80
2019-01-17T06:14:22.084Z,1.80
2019-01-17T06:14:57.112Z,1.90
2019-01-17T06:15:32.562Z,1.90
2019-01-17T06:16:07.764Z,1.90
2019-01-17T06:16:42.843Z,1.90
2019-01-17T06:17:17.843Z,1.90
2019-01-17T06:17:52.927Z,1.90
2019-01-17T06:18:27.935Z,2.00
2019-01-17T06:19:03.475Z,1.90
2019-01-17T06:19:38.697Z,2.00
2019-01-17T06:20:14.985Z,1.90
2019-01-17T06:20:50.378Z,2.00
2019-01-17T06:21:25.835Z,2.00
2019-01-17T06:22:01.345Z,1.90
2019-01-17T06:22:36.829Z,1.90
2019-01-17T06:23:12.099Z,2.00
2019-01-17T06:23:47.382Z,2.00
2019-01-17T06:24:22.801Z,2.00
2019-01-17T06:24:58.229Z,2.00
2019-01-17T06:25:33.698Z,2.00
2019-01-17T06:26:09.237Z,2.00
2019-01-17T06:26:44.603Z,2.00
2019-01-17T06:27:19.955Z,1.90
2019-01-17T06:27:55.439Z,2.00
2019-01-17T06:28:30.763Z,2.00
2019-01-17T06:29:06.316Z,2.00
2019-01-17T06:29:41.645Z,2.00
2019-01-17T06:30:17.000Z,2.00
2019-01-17T06:30:52.602Z,2.00
2019-01-17T06:31:28.048Z,2.10
2019-01-17T06:32:03.557Z,2.10
2019-01-17T06:32:38.965Z,2.10
2019-01-17T06:33:14.325Z,2.10
2019-01-17T06:33:49.639Z,2.10
2019-01-17T06:34:25.066Z,2.10
2019-01-17T06:35:00.561Z,2.10
2019-01-17T06:35:35.948Z,2.10
2019-01-17T06:36:11.340Z,2.10
2019-01-17T06:36:46.678Z,2.10
2019-01-17T06:37:22.239Z,2.10
2019-01-17T06:37:57.698Z,2.10
2019-01-17T06:38:32.958Z,2.20
2019-01-17T06:39:09.573Z,2.10
2019-01-17T06:39:44.959Z,2.10
2019-01-17T06:40:32.524Z,2.10
2019-01-17T06:41:07.906Z,2.20
2019-01-17T06:41:43.478Z,2.20
2019-01-17T06:42:18.860Z,2.20
2019-01-17T06:42:54.206Z,2.20
2019-01-17T06:43:29.462Z,2.20
2019-01-17T06:44:04.956Z,2.20
2019-01-17T06:44:40.527Z,2.20
2019-01-17T06:45:15.963Z,2.20
2019-01-17T06:45:51.218Z,2.20
2019-01-17T06:46:26.543Z,2.20
2019-01-17T06:47:02.363Z,2.20
2019-01-17T06:47:37.742Z,2.20
2019-01-17T06:48:13.082Z,2.30
2019-01-17T06:48:48.463Z,2.30
2019-01-17T06:49:23.843Z,2.30
2019-01-17T06:49:59.370Z,2.40
2019-01-17T06:50:34.681Z,2.40
2019-01-17T06:51:11.194Z,2.40
2019-01-17T06:51:46.618Z,2.40
2019-01-17T06:52:22.024Z,2.50
2019-01-17T06:52:57.460Z,2.50
2019-01-17T06:53:32.760Z,2.50
2019-01-17T06:54:08.218Z,2.50
2019-01-17T06:54:43.562Z,2.50
2019-01-17T06:55:19.079Z,2.50
2019-01-17T06:55:54.319Z,2.50
2019-01-17T06:56:29.741Z,2.60
2019-01-17T06:57:05.161Z,2.60
2019-01-17T06:57:40.500Z,2.60
2019-01-17T06:58:16.042Z,2.60
2019-01-17T06:58:51.259Z,2.60
2019-01-17T06:59:26.640Z,2.60
2019-01-17T07:00:02.026Z,2.60
2019-01-17T07:00:37.244Z,2.70
2019-01-17T07:01:13.119Z,2.70
2019-01-17T07:01:49.759Z,2.70
2019-01-17T07:02:25.187Z,2.70
2019-01-17T07:03:00.565Z,2.70
2019-01-17T07:03:36.017Z,2.70
2019-01-17T07:04:11.463Z,2.70
2019-01-17T07:04:46.816Z,2.70
2019-01-17T07:05:22.364Z,2.70
2019-01-17T07:05:57.815Z,2.70
2019-01-17T07:06:33.062Z,2.70
2019-01-17T07:07:08.526Z,2.70
2019-01-17T07:07:44.058Z,2.70
2019-01-17T07:08:19.367Z,2.70
2019-01-17T07:08:54.766Z,2.80
2019-01-17T07:09:30.044Z,2.80
2019-01-17T07:10:06.483Z,2.70
2019-01-17T07:10:41.831Z,2.80
2019-01-17T07:11:17.162Z,2.80
2019-01-17T07:11:52.534Z,2.80
2019-01-17T07:12:27.766Z,2.80
2019-01-17T07:13:03.427Z,2.80
2019-01-17T07:13:39.245Z,2.80
2019-01-17T07:14:14.664Z,2.90
2019-01-17T07:14:50.406Z,2.90
2019-01-17T07:15:25.764Z,2.90
2019-01-17T07:16:00.923Z,2.90
2019-01-17T07:16:36.221Z,2.90
2019-01-17T07:17:11.534Z,2.90
2019-01-17T07:17:46.984Z,2.90
2019-01-17T07:18:22.375Z,2.90
2019-01-17T07:18:57.954Z,2.90
2019-01-17T07:19:33.263Z,2.90
2019-01-17T07:20:09.937Z,3.00
2019-01-17T07:20:45.978Z,3.10
2019-01-17T07:21:21.359Z,3.10
2019-01-17T07:21:57.077Z,3.10
2019-01-17T07:22:32.337Z,3.10
2019-01-17T07:23:07.638Z,3.10
2019-01-17T07:23:42.964Z,3.10
2019-01-17T07:24:18.248Z,3.10
2019-01-17T07:24:53.598Z,3.10
2019-01-17T07:25:28.939Z,3.20
2019-01-17T07:26:04.382Z,3.20
2019-01-17T07:26:39.682Z,3.20
2019-01-17T07:27:15.002Z,3.20
2019-01-17T07:27:50.316Z,3.20
2019-01-17T07:28:25.682Z,3.20
2019-01-17T07:29:01.062Z,3.20
2019-01-17T07:29:36.364Z,3.30
2019-01-17T07:30:15.637Z,3.30
2019-01-17T07:30:51.037Z,3.30
2019-01-17T07:31:26.256Z,3.30
2019-01-17T07:32:01.458Z,3.30
2019-01-17T07:32:36.984Z,3.40
2019-01-17T07:33:12.307Z,3.40
2019-01-17T07:33:47.763Z,3.40
2019-01-17T07:34:23.023Z,3.40
2019-01-17T07:34:58.541Z,3.40
2019-01-17T07:35:33.826Z,3.50
2019-01-17T07:36:09.218Z,3.50
2019-01-17T07:36:44.715Z,3.50
2019-01-17T07:37:20.447Z,3.50
2019-01-17T07:37:55.859Z,3.50
2019-01-17T07:38:31.101Z,3.50
2019-01-17T07:39:08.516Z,3.50
2019-01-17T07:39:43.957Z,3.50
2019-01-17T07:40:19.440Z,3.60
2019-01-17T07:40:54.737Z,3.60
2019-01-17T07:41:29.997Z,3.60
2019-01-17T07:42:05.555Z,3.60
2019-01-17T07:42:40.861Z,3.60
2019-01-17T07:43:16.222Z,3.60
2019-01-17T07:43:51.816Z,3.60
2019-01-17T07:44:27.411Z,3.60
2019-01-17T07:45:02.737Z,3.70
2019-01-17T07:45:38.295Z,3.70
2019-01-17T07:46:14.021Z,3.80
2019-01-17T07:46:49.517Z,3.80
2019-01-17T07:47:24.781Z,3.80
2019-01-17T07:48:00.137Z,3.90
2019-01-17T07:48:35.415Z,3.90
2019-01-17T07:49:10.897Z,3.90
2019-01-17T07:49:46.287Z,3.90
2019-01-17T07:50:21.642Z,4.00
2019-01-17T07:50:57.095Z,4.00
2019-01-17T07:51:32.516Z,4.00
2019-01-17T07:52:08.043Z,4.00
2019-01-17T07:52:43.687Z,4.00
2019-01-17T07:53:18.998Z,4.00
2019-01-17T07:53:54.279Z,4.00
2019-01-17T07:54:29.835Z,4.10
2019-01-17T07:55:05.703Z,4.10
2019-01-17T07:55:47.383Z,4.10
2019-01-17T07:56:18.256Z,4.10
2019-01-17T07:56:53.764Z,4.10
2019-01-17T07:57:29.219Z,4.20
2019-01-17T07:58:04.808Z,4.30
2019-01-17T07:58:40.301Z,4.40
2019-01-17T07:59:15.721Z,4.40
2019-01-17T07:59:51.105Z,4.40
2019-01-17T08:00:26.423Z,4.50
2019-01-17T08:01:01.797Z,4.50
2019-01-17T08:01:37.205Z,4.50
2019-01-17T08:02:12.637Z,4.50
2019-01-17T08:02:48.383Z,4.50
2019-01-17T08:03:23.677Z,4.50
2019-01-17T08:03:58.956Z,4.50
2019-01-17T08:04:34.364Z,4.50
2019-01-17T08:05:10.244Z,4.50
2019-01-17T08:05:45.739Z,4.70
2019-01-17T08:06:21.075Z,4.80
2019-01-17T08:06:56.806Z,4.90
2019-01-17T08:07:32.383Z,5.10
2019-01-17T08:08:07.915Z,5.20
2019-01-17T08:08:43.235Z,5.40
2019-01-17T08:09:18.719Z,5.50
2019-01-17T08:09:54.118Z,5.70
2019-01-17T08:10:29.419Z,5.90
2019-01-17T08:11:04.917Z,6.00
2019-01-17T08:11:40.277Z,6.20
2019-01-17T08:12:15.783Z,6.20
2019-01-17T08:12:51.073Z,6.30
2019-01-17T08:13:27.130Z,6.30
2019-01-17T08:14:02.464Z,6.30
2019-01-17T08:14:37.801Z,6.50
2019-01-17T08:15:14.195Z,6.50
2019-01-17T08:15:49.880Z,6.60
2019-01-17T08:16:25.396Z,6.70
2019-01-17T08:17:00.964Z,6.70
2019-01-17T08:17:36.839Z,6.70
2019-01-17T08:18:18.516Z,6.80
2019-01-17T08:18:49.264Z,6.80
2019-01-17T08:19:25.230Z,6.80
2019-01-17T08:20:00.648Z,6.70
2019-01-17T08:20:36.269Z,6.80
2019-01-17T08:21:12.330Z,6.90
2019-01-17T08:21:47.938Z,6.80
2019-01-17T08:22:23.559Z,6.70
2019-01-17T08:22:59.136Z,6.60
2019-01-17T08:23:34.865Z,6.40
2019-01-17T08:24:10.478Z,6.20
2019-01-17T08:24:45.886Z,6.20
2019-01-17T08:25:21.725Z,6.20
2019-01-17T08:25:57.289Z,6.10
2019-01-17T08:26:33.222Z,6.20
2019-01-17T08:27:08.733Z,6.20
2019-01-17T08:27:44.546Z,6.20
2019-01-17T08:28:20.114Z,6.30
2019-01-17T08:28:55.776Z,6.30
2019-01-17T08:29:31.204Z,6.30
2019-01-17T08:30:09.202Z,6.50
2019-01-17T08:30:44.737Z,6.50
2019-01-17T08:31:20.478Z,6.50
2019-01-17T08:31:55.898Z,6.60
2019-01-17T08:32:31.638Z,6.70
2019-01-17T08:33:07.024Z,6.70
2019-01-17T08:33:42.509Z,6.90
2019-01-17T08:34:18.120Z,7.00
2019-01-17T08:34:53.561Z,7.10